Time;durP1;ratioP1;P1;durP2;ratioP2;P2;SDS_P1;SDS_P2;PMS_P1;PMS_P2;Temp;Humidity;BMP_temperature;BMP_pressure;BME280_temperature;BME280_humidity;BME280_pressure;Samples;Min_cycle;Max_cycle;Signal;HPM_P1;HPM_P2
2022/11/02 00:01:27;;;;;;;5.95;1.45;;;12.60;99.90;;;;;;5091513;28;20117;-65
2022/11/02 00:03:53;;;;;;;4.88;1.27;;;12.50;99.90;;;;;;5078196;28;20032;-64
2022/11/02 00:06:18;;;;;;;7.13;1.77;;;12.60;99.90;;;;;;5090916;28;20066;-64
2022/11/02 00:08:44;;;;;;;7.95;1.77;;;12.50;99.90;;;;;;5090337;28;20044;-64
2022/11/02 00:11:10;;;;;;;5.10;1.60;;;12.50;99.90;;;;;;5091284;28;20111;-64
2022/11/02 00:13:35;;;;;;;7.22;1.60;;;12.50;99.90;;;;;;5090597;28;20503;-64
2022/11/02 00:16:09;;;;;;;8.85;1.90;;;12.50;99.90;;;;;;5091208;28;20047;-65
2022/11/02 00:18:36;;;;;;;7.45;1.80;;;12.50;99.90;;;;;;5090737;28;20028;-65
2022/11/02 00:21:03;;;;;;;7.97;1.85;;;12.50;99.90;;;;;;5089514;28;20052;-64
2022/11/02 00:23:29;;;;;;;7.00;2.20;;;12.50;99.90;;;;;;5090147;28;20051;-64
2022/11/02 00:25:56;;;;;;;9.43;2.15;;;12.50;99.90;;;;;;5090365;28;20388;-65
2022/11/02 00:28:21;;;;;;;10.50;2.45;;;12.60;99.90;;;;;;5090565;28;20113;-64
2022/11/02 00:30:47;;;;;;;10.50;2.92;;;12.60;99.90;;;;;;5090702;28;20464;-64
2022/11/02 00:33:13;;;;;;;7.47;2.50;;;12.60;99.90;;;;;;5090409;28;20072;-64
2022/11/02 00:35:39;;;;;;;9.57;2.60;;;12.70;99.90;;;;;;5090477;28;20111;-64
2022/11/02 00:38:05;;;;;;;10.18;2.28;;;12.70;99.90;;;;;;5090117;28;20097;-65
2022/11/02 00:40:31;;;;;;;8.30;2.28;;;12.70;99.90;;;;;;5090505;28;20277;-64
2022/11/02 00:42:56;;;;;;;7.45;2.38;;;12.70;99.90;;;;;;5090286;28;20648;-64
2022/11/02 00:45:22;;;;;;;7.63;1.92;;;12.70;99.90;;;;;;5090330;28;20456;-64
2022/11/02 00:47:48;;;;;;;7.07;1.98;;;12.70;99.90;;;;;;5089960;28;20366;-63
2022/11/02 00:50:14;;;;;;;6.80;1.83;;;12.60;99.90;;;;;;5090065;28;20043;-64
2022/11/02 00:52:41;;;;;;;5.25;1.60;;;12.50;99.90;;;;;;5090059;28;20044;-64
2022/11/02 00:55:08;;;;;;;7.22;1.77;;;12.50;99.90;;;;;;5090131;28;20372;-63
2022/11/02 00:57:34;;;;;;;8.70;2.25;;;12.40;99.90;;;;;;5090336;28;20101;-65
2022/11/02 01:00:00;;;;;;;10.18;2.13;;;12.40;99.90;;;;;;5089469;28;20551;-64
2022/11/02 01:02:26;;;;;;;7.43;2.30;;;12.30;99.90;;;;;;5090223;28;20040;-65
2022/11/02 01:04:51;;;;;;;9.50;2.55;;;12.30;99.90;;;;;;5089089;28;20047;-65
2022/11/02 01:07:17;;;;;;;10.50;2.80;;;12.40;99.90;;;;;;5090541;28;20470;-65
2022/11/02 01:09:43;;;;;;;6.82;2.20;;;12.30;99.90;;;;;;5089712;28;20047;-65
2022/11/02 01:12:08;;;;;;;10.35;2.30;;;12.30;99.90;;;;;;5089947;28;20357;-64
2022/11/02 01:14:34;;;;;;;8.40;2.50;;;12.20;99.90;;;;;;5090164;28;20036;-65
2022/11/02 01:17:00;;;;;;;8.15;2.58;;;12.30;99.90;;;;;;5089698;28;20031;-64
2022/11/02 01:19:26;;;;;;;10.18;2.80;;;12.30;99.90;;;;;;5089315;28;20060;-65
2022/11/02 01:21:51;;;;;;;10.05;2.47;;;12.30;99.90;;;;;;5089416;28;20036;-64
2022/11/02 01:24:17;;;;;;;10.27;2.58;;;12.30;99.90;;;;;;5089669;28;20099;-64
2022/11/02 01:26:42;;;;;;;20.35;3.53;;;12.30;99.90;;;;;;5089681;28;20142;-64
2022/11/02 01:29:08;;;;;;;9.85;2.58;;;12.30;99.90;;;;;;5089331;28;20032;-65
2022/11/02 01:31:33;;;;;;;10.55;3.08;;;12.30;99.90;;;;;;5089650;28;20051;-64
2022/11/02 01:33:59;;;;;;;14.32;2.90;;;12.30;99.90;;;;;;5089710;28;20083;-64
2022/11/02 01:36:25;;;;;;;9.63;2.50;;;12.30;99.90;;;;;;5089757;28;20040;-65
2022/11/02 01:38:51;;;;;;;12.13;3.10;;;12.20;99.90;;;;;;5089413;28;20434;-64
2022/11/02 01:41:16;;;;;;;11.95;2.67;;;12.30;99.90;;;;;;5089812;28;20051;-64
2022/11/02 01:43:48;;;;;;;12.43;2.75;;;12.30;99.90;;;;;;5089621;28;20036;-64
2022/11/02 01:46:23;;;;;;;9.38;2.95;;;12.40;99.90;;;;;;5089791;28;20036;-65
2022/11/02 01:48:56;;;;;;;8.57;2.90;;;12.40;99.90;;;;;;5089440;28;20082;-65
2022/11/02 01:51:25;;;;;;;13.60;3.65;;;12.40;99.90;;;;;;5089549;28;20101;-64
2022/11/02 01:53:53;;;;;;;9.20;3.20;;;12.50;99.90;;;;;;5089517;28;20068;-65
2022/11/02 01:56:22;;;;;;;10.13;2.83;;;12.50;99.90;;;;;;5089295;28;20048;-65
2022/11/02 01:58:53;;;;;;;10.15;2.58;;;12.50;99.90;;;;;;5089149;28;20392;-66
2022/11/02 02:01:19;;;;;;;11.82;2.90;;;12.50;99.90;;;;;;5089632;28;20072;-65
2022/11/02 02:03:46;;;;;;;9.93;2.30;;;12.50;99.90;;;;;;5088905;28;20095;-64
2022/11/02 02:06:13;;;;;;;7.18;1.90;;;12.50;99.90;;;;;;5088307;28;20032;-64
2022/11/02 02:08:44;;;;;;;6.45;1.70;;;12.40;99.90;;;;;;5088557;28;20372;-65
2022/11/02 02:11:26;;;;;;;5.93;1.52;;;12.30;99.90;;;;;;5089454;28;20041;-64
2022/11/02 02:14:07;;;;;;;3.63;1.10;;;12.20;99.90;;;;;;5089468;28;20426;-64
2022/11/02 02:16:35;;;;;;;2.65;0.80;;;12.10;99.90;;;;;;5088994;28;20103;-64
2022/11/02 02:19:07;;;;;;;4.30;1.13;;;12.00;99.90;;;;;;5088935;28;20029;-65
2022/11/02 02:21:41;;;;;;;2.95;1.10;;;11.90;99.90;;;;;;5088133;28;20443;-64
2022/11/02 02:24:55;;;;;;;3.10;0.82;;;11.80;99.90;;;;;;5089228;28;20090;-64
2022/11/02 02:27:28;;;;;;;5.35;1.35;;;11.70;99.90;;;;;;5083745;28;20465;-64
2022/11/02 02:30:02;;;;;;;3.75;1.40;;;11.70;99.90;;;;;;5088647;28;20457;-64
2022/11/02 02:32:36;;;;;;;3.60;1.58;;;11.70;99.90;;;;;;5091117;28;20414;-64
2022/11/02 02:35:29;;;;;;;9.23;1.90;;;11.70;99.90;;;;;;5092920;28;20097;-64
2022/11/02 02:38:03;;;;;;;5.90;2.08;;;11.70;99.90;;;;;;5090474;28;20036;-64
2022/11/02 02:40:33;;;;;;;;;;;11.80;99.90;;;;;;5093474;28;20115;-64
2022/11/02 02:43:07;;;;;;;6.45;1.92;;;11.80;99.90;;;;;;5091414;28;19963;-64
2022/11/02 02:45:38;;;;;;;5.77;1.80;;;11.80;99.90;;;;;;5093131;28;20114;-64
2022/11/02 02:48:17;;;;;;;5.20;1.38;;;11.80;99.90;;;;;;5092542;28;20059;-64
2022/11/02 02:51:08;;;;;;;8.38;1.80;;;11.80;99.90;;;;;;5092938;28;20089;-64
2022/11/02 02:53:45;;;;;;;6.60;1.60;;;11.80;99.90;;;;;;5093072;28;20096;-63
2022/11/02 02:56:14;;;;;;;4.82;1.50;;;11.70;99.90;;;;;;5092317;28;20428;-64
2022/11/02 02:58:50;;;;;;;5.97;1.45;;;11.70;99.90;;;;;;5077815;28;20097;-64
2022/11/02 03:01:16;;;;;;;3.88;1.10;;;11.70;99.90;;;;;;5092554;28;20043;-64
2022/11/02 03:03:43;;;;;;;7.85;1.52;;;11.60;99.90;;;;;;5092446;28;20079;-63
2022/11/02 03:06:08;;;;;;;5.05;1.40;;;11.50;99.90;;;;;;5092343;28;20039;-65
2022/11/02 03:08:37;;;;;;;6.70;1.42;;;11.50;99.90;;;;;;5091990;28;20028;-64
2022/11/02 03:11:22;;;;;;;4.97;1.58;;;11.40;99.90;;;;;;5092383;28;20032;-63
2022/11/02 03:14:16;;;;;;;7.60;1.83;;;11.30;99.90;;;;;;5091918;28;20169;-64
2022/11/02 03:17:08;;;;;;;2.95;1.10;;;11.30;99.90;;;;;;5092046;28;20116;-64
2022/11/02 03:19:40;;;;;;;6.72;1.98;;;11.20;99.90;;;;;;5092131;28;20337;-64
2022/11/02 03:22:26;;;;;;;6.72;1.77;;;11.20;99.90;;;;;;5092377;28;20043;-64
2022/11/02 03:25:18;;;;;;;4.68;1.30;;;11.10;99.90;;;;;;5092112;28;20372;-64
2022/11/02 03:28:08;;;;;;;6.25;1.40;;;11.10;99.90;;;;;;5087819;28;20044;-64
2022/11/02 03:30:41;;;;;;;7.20;1.50;;;11.10;99.90;;;;;;5092012;28;20118;-64
2022/11/02 03:33:18;;;;;;;8.05;1.60;;;11.10;99.90;;;;;;5090909;28;20475;-64
2022/11/02 03:35:54;;;;;;;7.40;1.80;;;11.10;99.90;;;;;;5091725;28;20421;-65
2022/11/02 03:38:37;;;;;;;5.82;1.30;;;11.10;99.90;;;;;;5082063;28;20064;-65
2022/11/02 03:41:04;;;;;;;10.95;1.95;;;11.10;99.90;;;;;;5091633;28;20083;-65
2022/11/02 03:43:33;;;;;;;6.50;1.85;;;11.10;99.90;;;;;;5091094;28;20093;-63
2022/11/02 03:46:01;;;;;;;5.50;1.27;;;11.10;99.90;;;;;;5091275;28;20040;-65
2022/11/02 03:48:31;;;;;;;6.05;1.92;;;11.20;99.90;;;;;;5091033;28;20059;-64
2022/11/02 03:51:00;;;;;;;6.50;2.20;;;11.20;99.90;;;;;;5091298;28;20060;-65
2022/11/02 03:53:40;;;;;;;5.78;1.42;;;11.20;99.90;;;;;;5091312;28;20044;-65
2022/11/02 03:56:13;;;;;;;8.75;1.70;;;11.10;99.90;;;;;;5091263;28;20092;-65
2022/11/02 03:58:38;;;;;;;5.97;1.83;;;11.20;99.90;;;;;;5090154;28;20047;-64
2022/11/02 04:01:09;;;;;;;6.40;2.08;;;11.10;99.90;;;;;;5091065;28;20036;-65
2022/11/02 04:03:41;;;;;;;8.88;2.15;;;11.20;99.90;;;;;;5090698;28;20126;-65
2022/11/02 04:06:07;;;;;;;7.10;1.70;;;11.20;99.90;;;;;;5090772;28;20137;-65
2022/11/02 04:08:38;;;;;;;7.38;1.90;;;11.20;99.90;;;;;;5090381;28;20103;-64
2022/11/02 04:16:34;;;;;;;8.07;2.00;;;11.10;99.90;;;;;;5090794;28;20165;-67
2022/11/02 04:25:14;;;;;;;6.63;1.80;;;11.20;99.90;;;;;;5090695;28;20059;-65
2022/11/02 04:27:14;;;;;;;;;;;11.20;99.90;;;;;;5091045;28;20081;-65
2022/11/02 04:29:39;;;;;;;7.00;2.25;;;11.20;99.90;;;;;;5090088;28;19920;-65
2022/11/02 04:32:05;;;;;;;9.80;2.47;;;11.20;99.90;;;;;;5090325;28;20091;-65
2022/11/02 04:34:31;;;;;;;8.93;2.20;;;11.20;99.90;;;;;;5090666;28;20048;-64
2022/11/02 04:36:56;;;;;;;9.07;2.10;;;11.30;99.90;;;;;;5090314;28;20064;-64
2022/11/02 04:39:22;;;;;;;7.00;2.13;;;11.30;99.90;;;;;;5090314;28;20040;-65
2022/11/02 04:41:47;;;;;;;6.55;2.22;;;11.30;99.90;;;;;;5090334;28;20040;-65
2022/11/02 04:44:13;;;;;;;9.52;2.10;;;11.40;99.90;;;;;;5090844;28;20031;-65
2022/11/02 04:46:40;;;;;;;8.95;2.53;;;11.40;99.90;;;;;;5090168;28;20121;-64
2022/11/02 04:49:06;;;;;;;9.90;2.47;;;11.50;99.90;;;;;;5090248;28;20470;-65
2022/11/02 04:51:32;;;;;;;8.95;2.80;;;11.50;99.90;;;;;;5090594;28;20126;-64
2022/11/02 04:53:57;;;;;;;10.73;2.30;;;11.40;99.90;;;;;;5090350;28;20048;-65
2022/11/02 04:56:25;;;;;;;7.75;2.30;;;11.40;99.90;;;;;;5089006;28;20032;-64
2022/11/02 04:58:53;;;;;;;14.98;3.25;;;11.50;99.90;;;;;;5089621;28;20434;-65
2022/11/02 05:01:19;;;;;;;13.68;3.15;;;11.50;99.90;;;;;;5090363;28;20040;-64
2022/11/02 05:03:50;;;;;;;10.90;2.60;;;11.50;99.90;;;;;;5090326;28;20035;-65
2022/11/02 05:06:16;;;;;;;14.80;2.90;;;11.50;99.90;;;;;;5090123;28;20103;-65
2022/11/02 05:08:42;;;;;;;9.65;2.80;;;11.50;99.90;;;;;;5089905;28;20097;-64
2022/11/02 05:11:09;;;;;;;12.75;3.20;;;11.60;99.90;;;;;;5090439;28;20441;-64
2022/11/02 05:13:35;;;;;;;12.27;3.25;;;11.60;99.90;;;;;;5090301;28;20036;-65
2022/11/02 05:16:01;;;;;;;15.60;3.40;;;11.60;99.90;;;;;;5090162;28;20132;-64
2022/11/02 05:18:28;;;;;;;14.05;3.55;;;11.60;99.90;;;;;;5090067;28;20127;-63
2022/11/02 05:20:59;;;;;;;13.63;3.33;;;11.50;99.90;;;;;;5090224;28;20040;-63
2022/11/02 05:23:25;;;;;;;13.23;2.80;;;11.40;99.90;;;;;;5089915;28;20058;-64
2022/11/02 05:25:59;;;;;;;13.02;3.28;;;11.40;99.90;;;;;;5089959;28;20035;-64
2022/11/02 05:28:25;;;;;;;11.95;2.90;;;11.30;99.90;;;;;;5082410;28;20584;-64
2022/11/02 05:30:52;;;;;;;15.88;3.45;;;11.30;99.90;;;;;;5090041;28;20028;-64
2022/11/02 05:33:18;;;;;;;11.20;2.80;;;11.30;99.90;;;;;;5090192;28;20457;-63
2022/11/02 05:35:44;;;;;;;9.88;3.00;;;11.30;99.90;;;;;;5089971;28;20108;-63
2022/11/02 05:38:10;;;;;;;13.20;3.58;;;11.30;99.90;;;;;;5089156;28;20435;-63
2022/11/02 05:40:36;;;;;;;13.82;3.63;;;11.30;99.90;;;;;;5089869;28;20501;-63
2022/11/02 05:43:03;;;;;;;9.68;3.10;;;11.30;99.90;;;;;;5089783;28;20066;-63
2022/11/02 05:45:29;;;;;;;11.15;2.90;;;11.30;99.90;;;;;;5090152;28;20622;-64
2022/11/02 05:47:55;;;;;;;11.20;2.63;;;11.30;99.90;;;;;;5089157;28;20465;-63
2022/11/02 05:50:20;;;;;;;12.63;3.03;;;11.30;99.90;;;;;;5089604;28;20465;-63
2022/11/02 05:52:46;;;;;;;14.90;2.88;;;11.30;99.90;;;;;;5089803;28;20063;-63
2022/11/02 05:55:12;;;;;;;10.95;3.17;;;11.30;99.90;;;;;;5089569;28;20042;-64
2022/11/02 05:57:38;;;;;;;11.57;2.92;;;11.30;99.90;;;;;;5088242;28;20088;-64
2022/11/02 06:00:05;;;;;;;11.63;3.22;;;11.30;99.90;;;;;;5088762;28;20071;-63
2022/11/02 06:02:32;;;;;;;11.55;3.40;;;11.30;99.90;;;;;;5088806;28;20373;-63
2022/11/02 06:04:58;;;;;;;10.70;2.72;;;11.30;99.90;;;;;;5088750;28;20059;-63
2022/11/02 06:07:24;;;;;;;13.35;3.60;;;11.30;99.90;;;;;;5090709;28;20044;-62
2022/11/02 06:09:49;;;;;;;14.52;3.28;;;11.30;99.90;;;;;;5092562;28;20050;-63
2022/11/02 06:12:15;;;;;;;13.45;3.63;;;11.20;99.90;;;;;;5092066;28;20067;-64
2022/11/02 06:14:40;;;;;;;11.30;2.88;;;11.20;99.90;;;;;;5092444;28;20046;-64
2022/11/02 06:17:06;;;;;;;13.35;3.45;;;11.20;99.90;;;;;;5089676;28;20122;-64
2022/11/02 06:19:31;;;;;;;13.27;3.08;;;11.20;99.90;;;;;;5093026;28;20032;-64
2022/11/02 06:21:57;;;;;;;14.70;3.97;;;11.20;99.90;;;;;;5092135;28;20107;-64
2022/11/02 06:24:22;;;;;;;16.17;3.22;;;11.20;99.90;;;;;;5092671;28;20044;-63
2022/11/02 06:26:48;;;;;;;14.32;3.70;;;11.20;99.90;;;;;;5092296;28;20104;-63
2022/11/02 06:29:14;;;;;;;10.60;2.90;;;11.20;99.90;;;;;;5092361;28;20059;-62
2022/11/02 06:31:39;;;;;;;13.48;3.22;;;11.20;99.90;;;;;;5093288;28;20319;-62
2022/11/02 06:34:05;;;;;;;11.80;3.38;;;11.10;99.90;;;;;;5092813;28;20446;-63
2022/11/02 06:36:31;;;;;;;11.65;3.00;;;11.10;99.90;;;;;;5090807;28;20040;-63
2022/11/02 06:38:56;;;;;;;11.10;3.05;;;11.10;99.90;;;;;;5091751;28;20473;-63
2022/11/02 06:41:22;;;;;;;10.82;3.10;;;11.00;99.90;;;;;;5091781;28;20050;-63
2022/11/02 06:43:47;;;;;;;12.45;2.75;;;11.00;99.90;;;;;;5092647;28;20464;-64
2022/11/02 06:46:13;;;;;;;15.57;3.30;;;11.00;99.90;;;;;;5091967;28;20067;-63
2022/11/02 06:48:39;;;;;;;13.88;3.10;;;11.00;99.90;;;;;;5092003;28;20373;-65
2022/11/02 06:51:05;;;;;;;13.82;3.40;;;11.00;99.90;;;;;;5092279;28;20071;-65
2022/11/02 06:53:31;;;;;;;14.82;3.00;;;11.10;99.90;;;;;;5091418;28;20036;-63
2022/11/02 06:55:58;;;;;;;13.40;3.42;;;11.10;99.90;;;;;;5092304;28;20040;-63
2022/11/02 06:58:25;;;;;;;13.18;3.25;;;11.10;99.90;;;;;;5092095;28;20141;-63
2022/11/02 07:00:57;;;;;;;12.82;2.83;;;11.10;99.90;;;;;;5090945;28;20063;-64
2022/11/02 07:03:23;;;;;;;13.27;3.38;;;11.20;99.90;;;;;;5090964;28;20192;-64
2022/11/02 07:05:50;;;;;;;14.15;3.25;;;11.30;99.90;;;;;;5088981;28;20452;-63
2022/11/02 07:08:16;;;;;;;15.30;3.40;;;11.30;99.90;;;;;;5090315;28;20106;-64
2022/11/02 07:10:41;;;;;;;14.32;3.13;;;11.30;99.90;;;;;;5090786;28;20115;-63
2022/11/02 07:13:07;;;;;;;13.10;3.03;;;11.30;99.90;;;;;;5091192;28;20036;-63
2022/11/02 07:15:32;;;;;;;14.15;3.30;;;11.30;99.90;;;;;;5090554;28;20047;-64
2022/11/02 07:17:58;;;;;;;12.13;2.90;;;11.30;99.90;;;;;;5089279;28;20068;-63
2022/11/02 07:20:24;;;;;;;13.07;3.25;;;11.40;99.90;;;;;;5090906;28;20040;-63
2022/11/02 07:22:58;;;;;;;18.70;3.67;;;11.40;99.90;;;;;;5089723;28;20043;-63
2022/11/02 07:25:27;;;;;;;15.25;3.47;;;11.50;99.90;;;;;;5089571;28;20097;-62
2022/11/02 07:27:53;;;;;;;15.73;3.95;;;11.60;99.90;;;;;;5088210;28;20063;-63
2022/11/02 07:30:20;;;;;;;15.45;3.35;;;11.60;99.90;;;;;;5091246;28;20454;-63
2022/11/02 07:32:46;;;;;;;12.95;2.72;;;11.70;99.90;;;;;;5090231;28;20088;-63
2022/11/02 07:35:13;;;;;;;12.57;2.83;;;11.70;99.90;;;;;;5090625;28;20083;-62
2022/11/02 07:37:40;;;;;;;16.45;3.83;;;11.80;99.90;;;;;;5089202;28;20036;-63
2022/11/02 07:40:07;;;;;;;11.25;2.42;;;11.70;99.90;;;;;;5089650;28;20615;-64
2022/11/02 07:42:34;;;;;;;10.32;2.40;;;11.70;99.90;;;;;;5089937;28;20052;-63
2022/11/02 07:44:59;;;;;;;13.95;3.03;;;11.70;99.90;;;;;;5091359;28;20051;-63
2022/11/02 07:47:25;;;;;;;9.32;2.33;;;11.70;99.90;;;;;;5091624;28;20314;-63
2022/11/02 07:49:51;;;;;;;12.38;3.30;;;11.70;99.90;;;;;;5091478;28;20028;-64
2022/11/02 07:52:17;;;;;;;14.10;2.95;;;11.70;99.90;;;;;;5091346;28;20043;-64
2022/11/02 07:54:42;;;;;;;12.38;2.58;;;11.70;99.90;;;;;;5090031;28;20082;-63
2022/11/02 07:57:08;;;;;;;12.18;2.90;;;11.70;99.90;;;;;;5090793;28;20129;-63
2022/11/02 07:59:35;;;;;;;12.98;3.95;;;11.70;99.90;;;;;;5090563;28;20080;-63
2022/11/02 08:02:01;;;;;;;10.63;2.83;;;11.70;99.90;;;;;;5089748;28;20067;-63
2022/11/02 08:04:26;;;;;;;12.15;3.40;;;11.70;99.90;;;;;;5090430;28;20074;-63
2022/11/02 08:06:52;;;;;;;11.38;3.42;;;11.70;99.90;;;;;;5090702;28;20039;-64
2022/11/02 08:09:18;;;;;;;10.05;2.97;;;11.70;99.90;;;;;;5090824;28;20032;-63
2022/11/02 08:11:43;;;;;;;9.70;2.85;;;11.70;99.90;;;;;;5090738;28;20115;-63
2022/11/02 08:14:09;;;;;;;11.05;2.47;;;11.80;99.90;;;;;;5090418;28;20432;-64
2022/11/02 08:16:34;;;;;;;11.70;2.60;;;11.80;99.90;;;;;;5090300;28;20109;-62
2022/11/02 08:19:00;;;;;;;9.85;2.38;;;11.90;99.90;;;;;;5090529;28;20054;-62
2022/11/02 08:21:25;;;;;;;13.07;2.80;;;11.90;99.90;;;;;;5090275;28;20047;-62
2022/11/02 08:23:51;;;;;;;9.93;2.65;;;11.90;99.90;;;;;;5090448;28;20036;-62
2022/11/02 08:26:17;;;;;;;11.98;2.85;;;12.00;99.90;;;;;;5089927;28;20040;-63
2022/11/02 08:28:42;;;;;;;8.40;2.25;;;12.10;99.90;;;;;;5089826;28;20063;-62
2022/11/02 08:31:15;;;;;;;13.02;3.13;;;12.10;99.90;;;;;;5089048;28;20036;-63
2022/11/02 08:33:44;;;;;;;11.60;2.50;;;12.20;99.90;;;;;;5089632;28;20036;-63
2022/11/02 08:36:11;;;;;;;6.97;2.20;;;12.30;99.90;;;;;;5089479;28;20452;-63
2022/11/02 08:38:37;;;;;;;12.93;2.60;;;12.30;99.90;;;;;;5088286;28;20050;-63
2022/11/02 08:41:03;;;;;;;11.55;2.15;;;12.30;99.90;;;;;;5090527;28;20061;-62
2022/11/02 08:43:29;;;;;;;9.57;2.17;;;12.40;99.90;;;;;;5089466;28;20050;-63
2022/11/02 08:45:58;;;;;;;7.55;1.80;;;12.40;99.90;;;;;;5089893;28;20433;-64
2022/11/02 08:48:24;;;;;;;6.03;1.83;;;12.50;99.90;;;;;;5089573;28;20039;-63
2022/11/02 08:50:50;;;;;;;8.52;2.42;;;12.50;99.90;;;;;;5089923;28;20039;-64
2022/11/02 08:53:16;;;;;;;12.50;2.38;;;12.60;99.90;;;;;;5088982;28;20036;-63
2022/11/02 08:55:41;;;;;;;9.73;2.42;;;12.50;99.90;;;;;;5089655;28;20838;-64
2022/11/02 08:58:07;;;;;;;8.77;2.33;;;12.60;99.90;;;;;;5089427;28;20044;-63
2022/11/02 09:00:34;;;;;;;11.02;2.75;;;12.60;99.90;;;;;;5089300;28;20040;-63
2022/11/02 09:03:12;;;;;;;8.38;2.13;;;12.70;99.90;;;;;;5089794;28;20044;-64
2022/11/02 09:05:43;;;;;;;13.05;2.20;;;12.80;99.90;;;;;;5089751;28;20080;-63
2022/11/02 09:08:17;;;;;;;8.65;2.47;;;12.80;99.90;;;;;;5086263;28;20123;-63
2022/11/02 09:10:44;;;;;;;12.38;2.65;;;12.90;99.90;;;;;;5084294;28;20068;-64
2022/11/02 09:13:12;;;;;;;11.07;2.72;;;13.00;99.90;;;;;;5089095;28;20040;-64
2022/11/02 09:15:38;;;;;;;11.73;2.75;;;13.00;99.90;;;;;;5089688;28;20110;-64
2022/11/02 09:18:04;;;;;;;11.90;2.35;;;13.00;99.90;;;;;;5089081;28;20445;-64
2022/11/02 09:20:31;;;;;;;11.40;2.38;;;13.00;99.90;;;;;;5089316;28;20139;-65
2022/11/02 09:22:57;;;;;;;12.20;3.35;;;13.10;99.90;;;;;;5089254;28;20079;-63
2022/11/02 09:25:22;;;;;;;10.73;2.42;;;13.20;99.90;;;;;;5087037;28;20074;-63
2022/11/02 09:27:53;;;;;;;14.00;3.13;;;13.20;99.90;;;;;;5083138;28;20032;-64
2022/11/02 09:30:19;;;;;;;14.98;3.85;;;13.20;99.90;;;;;;5089278;28;20640;-64
2022/11/02 09:32:51;;;;;;;13.25;3.83;;;13.30;99.90;;;;;;5089365;28;20127;-64
2022/11/02 09:35:17;;;;;;;8.25;2.67;;;13.20;99.90;;;;;;5088823;28;20035;-63
2022/11/02 09:37:43;;;;;;;12.52;2.97;;;13.20;99.90;;;;;;5088149;28;20139;-65
2022/11/02 09:40:10;;;;;;;15.30;3.70;;;13.20;99.90;;;;;;5089392;28;20391;-64
2022/11/02 09:42:53;;;;;;;14.32;3.13;;;13.30;99.90;;;;;;5092382;28;20075;-63
2022/11/02 09:45:19;;;;;;;15.75;3.58;;;13.40;99.90;;;;;;5093717;28;20032;-63
2022/11/02 09:47:51;;;;;;;12.05;3.10;;;13.40;99.90;;;;;;5093593;28;20046;-64
2022/11/02 09:50:23;;;;;;;12.77;2.70;;;13.50;99.90;;;;;;5080294;28;20093;-63
2022/11/02 09:53:01;;;;;;;10.10;2.10;;;13.60;99.90;;;;;;5092831;28;20136;-63
2022/11/02 09:55:34;;;;;;;8.75;2.78;;;13.70;99.90;;;;;;5079992;28;20389;-64
2022/11/02 09:58:08;;;;;;;10.98;2.90;;;13.70;99.90;;;;;;5092741;28;20149;-64
2022/11/02 10:00:38;;;;;;;8.50;2.40;;;13.70;99.90;;;;;;5093200;28;20449;-64
2022/11/02 10:03:19;;;;;;;6.97;2.42;;;13.60;99.90;;;;;;5092854;28;20089;-64
2022/11/02 10:06:02;;;;;;;9.23;2.10;;;13.60;99.90;;;;;;5093110;28;20044;-64
2022/11/02 10:08:44;;;;;;;10.63;2.80;;;13.60;99.90;;;;;;5093227;28;20376;-64
2022/11/02 10:11:37;;;;;;;12.05;2.35;;;13.60;99.90;;;;;;5093535;28;20059;-64
2022/11/02 10:14:22;;;;;;;8.35;2.40;;;13.60;99.90;;;;;;5092495;28;20036;-63
2022/11/02 10:17:05;;;;;;;9.57;2.63;;;13.60;99.90;;;;;;5092856;28;20063;-62
2022/11/02 10:19:33;;;;;;;14.23;2.85;;;13.60;99.90;;;;;;5093116;28;20055;-64
2022/11/02 10:21:59;;;;;;;10.38;2.25;;;13.60;99.90;;;;;;5092930;28;20127;-63
2022/11/02 10:24:28;;;;;;;8.38;2.20;;;13.70;99.90;;;;;;5092399;28;20082;-63
2022/11/02 10:26:58;;;;;;;10.10;2.45;;;13.70;99.90;;;;;;5092731;28;20099;-64
2022/11/02 10:29:53;;;;;;;8.50;2.58;;;13.70;99.90;;;;;;5093151;28;20099;-63
2022/11/02 10:32:19;;;;;;;12.48;3.03;;;13.70;99.90;;;;;;5092836;28;20450;-64
2022/11/02 10:34:45;;;;;;;15.18;3.42;;;13.70;99.90;;;;;;5092348;28;20125;-63
2022/11/02 10:37:43;;;;;;;14.63;3.08;;;13.80;99.90;;;;;;5092663;28;20032;-63
2022/11/02 10:40:23;;;;;;;11.43;3.22;;;13.80;99.90;;;;;;5082833;28;20078;-63
2022/11/02 10:43:08;;;;;;;8.98;1.98;;;13.90;99.90;;;;;;5092293;28;20047;-64
2022/11/02 10:46:01;;;;;;;9.43;2.30;;;13.90;99.90;;;;;;5093005;28;20124;-64
2022/11/02 10:48:35;;;;;;;9.73;2.63;;;13.90;99.90;;;;;;5092358;28;20424;-65
2022/11/02 10:51:08;;;;;;;10.43;2.28;;;13.90;99.90;;;;;;5092777;28;20358;-64
2022/11/02 10:53:49;;;;;;;9.10;2.90;;;13.90;99.90;;;;;;5092085;28;20133;-63
2022/11/02 10:56:18;;;;;;;8.25;2.17;;;14.00;99.90;;;;;;5092473;28;20123;-64
2022/11/02 10:58:51;;;;;;;11.77;2.25;;;14.00;99.90;;;;;;5091893;28;20135;-64
2022/11/02 11:01:17;;;;;;;8.60;2.38;;;14.00;99.90;;;;;;5092894;28;20043;-64
2022/11/02 11:04:01;;;;;;;9.88;2.33;;;14.20;99.90;;;;;;5091783;28;20452;-65
2022/11/02 11:06:39;;;;;;;9.68;2.75;;;14.30;99.90;;;;;;5092007;28;20329;-64
2022/11/02 11:09:29;;;;;;;9.45;2.20;;;14.40;99.90;;;;;;5079708;28;20040;-64
2022/11/02 11:12:00;;;;;;;10.10;2.28;;;14.50;99.90;;;;;;5092288;28;20039;-65
2022/11/02 11:14:28;;;;;;;8.02;2.05;;;14.50;99.90;;;;;;5091653;28;20036;-64
2022/11/02 11:16:58;;;;;;;8.25;2.25;;;14.50;99.90;;;;;;5091789;28;20032;-65
2022/11/02 11:19:32;;;;;;;9.85;1.92;;;14.40;99.90;;;;;;5092241;28;20043;-65
2022/11/02 11:21:58;;;;;;;8.02;2.38;;;14.50;99.90;;;;;;5091744;28;20525;-65
2022/11/02 11:24:29;;;;;;;11.73;2.42;;;14.50;99.90;;;;;;5090277;28;20040;-65
2022/11/02 11:27:16;;;;;;;8.98;2.15;;;14.50;99.90;;;;;;5091766;28;20024;-66
2022/11/02 11:29:57;;;;;;;7.97;2.40;;;14.60;99.90;;;;;;5091890;28;20061;-66
2022/11/02 11:32:28;;;;;;;10.35;2.15;;;14.70;99.90;;;;;;5089403;28;20048;-64
2022/11/02 11:34:57;;;;;;;7.53;1.67;;;14.80;99.90;;;;;;5091445;28;20488;-65
2022/11/02 11:37:24;;;;;;;7.20;1.98;;;14.80;99.90;;;;;;5091496;28;20043;-65
2022/11/02 11:39:54;;;;;;;5.97;1.75;;;14.90;99.90;;;;;;5091739;28;20107;-64
2022/11/02 11:42:23;;;;;;;6.22;1.60;;;14.90;99.90;;;;;;5091704;28;20051;-64
2022/11/02 11:45:03;;;;;;;6.97;1.90;;;14.90;99.90;;;;;;5091185;28;20054;-64
2022/11/02 11:47:34;;;;;;;8.13;1.95;;;14.90;99.90;;;;;;5091245;28;20414;-64
2022/11/02 11:50:04;;;;;;;8.55;2.10;;;14.80;99.90;;;;;;5091294;28;20048;-65
2022/11/02 11:52:31;;;;;;;8.98;2.25;;;14.70;99.90;;;;;;5079967;28;20335;-64
2022/11/02 11:55:18;;;;;;;8.07;2.25;;;14.70;99.90;;;;;;5087863;28;20540;-65
2022/11/02 11:57:44;;;;;;;8.32;1.90;;;14.50;99.90;;;;;;5090795;28;20036;-64
2022/11/02 12:00:36;;;;;;;6.80;1.95;;;14.30;99.90;;;;;;5090430;28;20058;-64
2022/11/02 12:03:08;;;;;;;8.20;2.13;;;14.20;99.90;;;;;;5088824;28;20055;-64
2022/11/02 12:06:05;;;;;;;8.75;2.13;;;14.20;99.90;;;;;;5089961;28;20349;-65
2022/11/02 12:08:33;;;;;;;8.68;2.08;;;14.10;99.90;;;;;;5088775;28;20380;-64
2022/11/02 12:11:22;;;;;;;6.85;2.13;;;14.20;99.90;;;;;;5090765;28;20048;-64
2022/11/02 12:13:51;;;;;;;9.32;2.72;;;14.20;99.90;;;;;;5090173;28;20036;-64
2022/11/02 12:16:30;;;;;;;9.40;2.60;;;14.30;99.90;;;;;;5090288;28;20062;-64
2022/11/02 12:19:05;;;;;;;8.10;2.83;;;14.50;99.90;;;;;;5089049;28;20052;-64
2022/11/02 12:22:02;;;;;;;7.03;1.95;;;14.60;99.90;;;;;;5090237;28;20139;-64
2022/11/02 12:25:10;;;;;;;7.25;2.03;;;14.80;99.90;;;;;;5088568;28;20048;-64
2022/11/02 12:27:48;;;;;;;12.55;5.03;;;14.90;99.90;;;;;;5090015;28;20032;-64
2022/11/02 12:30:37;;;;;;;12.70;5.22;;;14.90;99.90;;;;;;5090373;28;20036;-65
2022/11/02 12:33:28;;;;;;;12.85;2.22;;;15.00;99.90;;;;;;5088494;28;20051;-65
2022/11/02 12:36:04;;;;;;;9.95;2.25;;;14.90;99.90;;;;;;5090224;28;20123;-65
2022/11/02 12:38:45;;;;;;;9.10;2.15;;;14.90;99.90;;;;;;5089483;28;20052;-64
2022/11/02 12:41:19;;;;;;;8.68;1.95;;;14.90;99.90;;;;;;5088931;28;20032;-65
2022/11/02 12:43:53;;;;;;;9.93;2.45;;;14.90;99.90;;;;;;5089439;28;20472;-64
2022/11/02 12:46:44;;;;;;;6.63;2.00;;;14.80;99.90;;;;;;5090403;28;20043;-64
2022/11/02 12:49:31;;;;;;;12.35;2.03;;;14.80;99.90;;;;;;5089255;28;20614;-64
2022/11/02 12:52:10;;;;;;;9.65;2.40;;;14.90;99.90;;;;;;5087254;28;20357;-64
2022/11/02 12:54:46;;;;;;;8.88;2.30;;;15.00;99.90;;;;;;5089898;28;20036;-64
2022/11/02 12:57:15;;;;;;;8.05;2.20;;;15.00;99.90;;;;;;5090152;28;20093;-64
2022/11/02 12:59:43;;;;;;;11.82;2.92;;;15.10;99.90;;;;;;5089613;28;20439;-64
2022/11/02 13:02:25;;;;;;;7.93;2.33;;;15.20;99.90;;;;;;5089714;28;20048;-65
2022/11/02 13:04:59;;;;;;;11.70;2.58;;;15.30;99.90;;;;;;5087800;28;20123;-65
2022/11/02 13:07:49;;;;;;;9.45;2.00;;;15.20;99.90;;;;;;5078614;28;20039;-66
2022/11/02 13:10:35;;;;;;;8.18;1.77;;;15.00;99.90;;;;;;5089996;28;20043;-65
2022/11/02 13:13:03;;;;;;;8.85;2.17;;;14.90;99.90;;;;;;5088324;28;20048;-63